Time;durP1;ratioP1;P1;durP2;ratioP2;P2;SDS_P1;SDS_P2;PMS_P1;PMS_P2;Temp;Humidity;BMP_temperature;BMP_pressure;BME280_temperature;BME280_humidity;BME280_pressure;Samples;Min_cycle;Max_cycle;Signal;HPM_P1;HPM_P2
2023/06/21 00:00:18;;;;;;;10.07;8.77;;;;;;;17.42;78.21;95144.63;5118014;28;20191;-68
2023/06/21 00:02:46;;;;;;;10.43;8.88;;;;;;;17.42;78.49;95139.03;5118294;28;20184;-68
2023/06/21 00:05:17;;;;;;;9.25;8.32;;;;;;;17.46;78.26;95150.19;5117276;28;20195;-68
2023/06/21 00:07:47;;;;;;;10.88;8.68;;;;;;;17.44;78.00;95142.25;5118494;28;20230;-68
2023/06/21 00:10:15;;;;;;;9.15;8.35;;;;;;;17.40;78.09;95137.84;5118091;28;20223;-67
2023/06/21 00:12:45;;;;;;;11.02;8.65;;;;;;;17.33;77.53;95145.00;5117412;28;20550;-67
2023/06/21 00:15:13;;;;;;;9.57;8.57;;;;;;;17.29;77.49;95143.41;5118064;28;20172;-67
2023/06/21 00:17:40;;;;;;;9.52;8.60;;;;;;;17.26;77.89;95142.19;5116986;28;20203;-68
2023/06/21 00:20:10;;;;;;;9.85;8.63;;;;;;;17.24;77.81;95143.78;5117922;28;20183;-68
2023/06/21 00:22:38;;;;;;;10.02;9.18;;;;;;;17.14;77.98;95142.56;5118143;27;20202;-68
2023/06/21 00:25:07;;;;;;;8.90;8.15;;;;;;;17.07;78.02;95137.78;5117890;28;20184;-68
2023/06/21 00:27:36;;;;;;;9.82;8.85;;;;;;;17.03;77.97;95142.53;5117756;28;20191;-68
2023/06/21 00:30:05;;;;;;;9.35;8.45;;;;;;;17.04;78.34;95130.19;5116774;28;20195;-68
2023/06/21 00:32:33;;;;;;;9.45;8.52;;;;;;;17.08;78.43;95138.56;5117341;28;20588;-68
2023/06/21 00:35:00;;;;;;;9.27;8.38;;;;;;;17.09;78.89;95132.59;5116587;28;20223;-68
2023/06/21 00:37:27;;;;;;;9.07;8.18;;;;;;;17.09;78.55;95129.00;5116384;28;20532;-68
2023/06/21 00:39:55;;;;;;;9.55;8.70;;;;;;;17.07;79.07;95137.78;5117767;28;20226;-68
2023/06/21 00:42:23;;;;;;;9.05;8.25;;;;;;;17.08;79.57;95144.13;5117250;28;20237;-68
2023/06/21 00:44:52;;;;;;;9.02;8.20;;;;;;;17.11;78.78;95139.78;5116551;28;20187;-68
2023/06/21 00:47:22;;;;;;;11.07;10.07;;;;;;;17.11;78.95;95140.56;5116594;28;20203;-68
2023/06/21 00:49:50;;;;;;;10.43;9.52;;;;;;;17.09;78.53;95135.38;5116587;28;20295;-68
2023/06/21 00:52:18;;;;;;;8.90;8.10;;;;;;;17.11;78.45;95139.78;5117536;28;20213;-68
2023/06/21 00:54:47;;;;;;;9.02;8.13;;;;;;;17.09;78.07;95135.38;5116433;28;20211;-68
2023/06/21 00:57:17;;;;;;;10.07;9.05;;;;;;;17.10;78.29;95147.31;5116963;28;20187;-68
2023/06/21 00:59:45;;;;;;;11.05;10.02;;;;;;;17.06;78.26;95141.72;5117011;28;20600;-68
2023/06/21 01:02:13;;;;;;;12.73;10.90;;;;;;;17.03;78.90;95141.72;5117133;28;20184;-68
2023/06/21 01:04:43;;;;;;;11.43;10.32;;;;;;;16.92;78.55;95136.13;5117102;28;20214;-68
2023/06/21 01:07:18;;;;;;;11.35;9.85;;;;;;;16.84;78.91;95142.84;5117134;28;20276;-68
2023/06/21 01:10:02;;;;;;;11.05;9.77;;;;;;;16.80;78.44;95139.25;5116128;28;20217;-68
2023/06/21 01:12:40;;;;;;;11.57;10.30;;;;;;;16.80;78.71;95145.63;5116580;28;20619;-68
2023/06/21 01:15:14;;;;;;;10.70;9.63;;;;;;;16.84;78.75;95149.22;5115983;28;20211;-68
2023/06/21 01:17:43;;;;;;;10.35;9.32;;;;;;;16.86;78.79;95134.13;5115711;28;20229;-68
2023/06/21 01:20:23;;;;;;;11.20;9.98;;;;;;;16.83;78.49;95136.47;5116584;28;20180;-68
2023/06/21 01:23:05;;;;;;;12.35;9.82;;;;;;;16.76;79.12;95136.44;5116373;28;20184;-68
2023/06/21 01:25:42;;;;;;;9.95;9.05;;;;;;;16.70;79.19;95137.97;5116800;28;20180;-68
2023/06/21 01:28:28;;;;;;;10.70;9.63;;;;;;;16.71;79.07;95134.03;5115891;28;20387;-68
2023/06/21 01:31:01;;;;;;;10.38;9.35;;;;;;;16.72;79.19;95140.38;5116562;28;20233;-68
2023/06/21 01:33:31;;;;;;;10.38;9.38;;;;;;;16.73;79.02;95137.19;5115095;28;20223;-68
2023/06/21 01:36:03;;;;;;;10.07;9.05;;;;;;;16.69;79.01;95144.75;5116384;28;20611;-68
2023/06/21 01:38:33;;;;;;;9.55;8.70;;;;;;;16.60;79.35;95141.53;5115617;28;20188;-68
2023/06/21 01:41:01;;;;;;;9.15;8.35;;;;;;;16.58;79.17;95149.47;5115232;28;20199;-68
2023/06/21 01:43:28;;;;;;;9.75;8.88;;;;;;;16.58;79.16;95146.69;5116002;28;20693;-68
2023/06/21 01:46:02;;;;;;;10.05;9.02;;;;;;;16.60;79.13;95163.81;5115876;28;20196;-67
2023/06/21 01:48:33;;;;;;;9.95;9.00;;;;;;;16.62;79.82;95150.28;5115753;28;20518;-68
2023/06/21 01:51:02;;;;;;;9.27;8.48;;;;;;;16.65;80.43;95152.28;5115401;28;20203;-68
2023/06/21 01:53:31;;;;;;;9.63;8.73;;;;;;;16.67;80.56;95154.69;5115087;28;20208;-67
2023/06/21 01:56:01;;;;;;;10.50;9.48;;;;;;;16.68;79.62;95161.84;5115601;28;20191;-68
2023/06/21 01:58:29;;;;;;;9.88;9.05;;;;;;;16.60;80.09;95153.47;5116044;28;20207;-68
2023/06/21 02:01:00;;;;;;;10.02;9.02;;;;;;;16.56;80.04;95149.84;5115749;28;20187;-68
2023/06/21 02:03:29;;;;;;;10.93;9.15;;;;;;;16.49;79.87;95143.47;5115851;28;20176;-68
2023/06/21 02:05:58;;;;;;;9.98;9.07;;;;;;;16.45;79.59;95150.97;5115636;28;20311;-68
2023/06/21 02:08:26;;;;;;;12.27;9.07;;;;;;;16.39;79.69;95147.75;5115939;28;20180;-68
2023/06/21 02:10:54;;;;;;;9.27;8.35;;;;;;;16.36;80.10;95140.97;5114858;28;20180;-68
2023/06/21 02:13:21;;;;;;;11.13;8.73;;;;;;;16.35;80.44;95138.59;5114897;28;20603;-68
2023/06/21 02:15:49;;;;;;;9.45;8.48;;;;;;;16.40;79.81;95143.78;5114539;28;20250;-68
2023/06/21 02:18:22;;;;;;;9.35;8.45;;;;;;;16.45;79.96;95149.00;5115283;28;20203;-68
2023/06/21 02:20:50;;;;;;;9.27;8.23;;;;;;;16.44;80.04;95144.59;5114369;28;20221;-68
2023/06/21 02:23:19;;;;;;;9.98;9.02;;;;;;;16.42;80.32;95148.97;5114461;28;20207;-68
2023/06/21 02:25:47;;;;;;;12.20;9.15;;;;;;;16.43;80.08;95156.13;5115690;28;20197;-68
2023/06/21 02:28:16;;;;;;;9.35;8.45;;;;;;;16.44;80.42;95157.72;5115435;28;20191;-68
2023/06/21 02:30:45;;;;;;;12.98;9.32;;;;;;;16.41;80.39;95158.50;5114834;28;20278;-68
2023/06/21 02:33:13;;;;;;;9.95;8.90;;;;;;;16.37;80.89;95158.47;5114671;28;20191;-67
2023/06/21 02:35:42;;;;;;;10.48;9.48;;;;;;;16.27;80.61;95154.47;5114642;28;20272;-67
2023/06/21 02:38:10;;;;;;;10.48;9.40;;;;;;;16.21;80.34;95158.78;5114518;28;20623;-67
2023/06/21 02:40:38;;;;;;;10.15;9.15;;;;;;;16.22;80.72;95163.16;5114983;28;20203;-67
2023/06/21 02:43:07;;;;;;;11.52;9.60;;;;;;;16.21;80.29;95169.91;5114372;28;20296;-67
2023/06/21 02:45:36;;;;;;;10.45;9.40;;;;;;;16.17;80.11;95180.22;5114662;28;20184;-67
2023/06/21 02:48:05;;;;;;;10.50;9.25;;;;;;;16.18;80.53;95176.25;5114670;28;20200;-67
2023/06/21 02:50:33;;;;;;;12.35;9.23;;;;;;;16.18;80.56;95181.00;5114713;28;20252;-67
2023/06/21 02:53:03;;;;;;;10.98;9.50;;;;;;;16.18;80.30;95183.78;5115527;28;20188;-67
2023/06/21 02:55:31;;;;;;;10.68;9.27;;;;;;;16.18;80.38;95189.38;5115038;28;20268;-67
2023/06/21 02:58:00;;;;;;;12.93;10.07;;;;;;;16.18;80.70;95178.22;5114947;28;20203;-67
2023/06/21 03:00:31;;;;;;;13.30;9.43;;;;;;;16.16;80.78;95192.53;5114480;28;20257;-67
2023/06/21 03:03:00;;;;;;;11.35;10.15;;;;;;;16.06;80.87;95187.69;5118697;28;20232;-67
2023/06/21 03:05:28;;;;;;;10.70;9.70;;;;;;;16.04;81.11;95188.06;5119202;28;20634;-67
2023/06/21 03:08:00;;;;;;;10.07;9.02;;;;;;;16.06;81.10;95193.25;5119138;28;20646;-67
2023/06/21 03:10:34;;;;;;;10.35;9.27;;;;;;;16.09;81.63;95196.06;5118135;28;20635;-67
2023/06/21 03:13:02;;;;;;;11.13;9.32;;;;;;;16.11;81.33;95192.88;5119350;28;20183;-68
2023/06/21 03:15:30;;;;;;;10.85;9.90;;;;;;;16.12;81.46;95198.09;5117887;28;20219;-68
2023/06/21 03:18:00;;;;;;;10.57;9.45;;;;;;;16.13;81.18;95199.66;5118525;28;20198;-68
2023/06/21 03:20:28;;;;;;;11.88;10.48;;;;;;;16.10;81.13;95199.66;5119109;28;20200;-68
2023/06/21 03:22:55;;;;;;;12.45;11.30;;;;;;;16.04;81.53;95199.19;5118276;28;20196;-68
2023/06/21 03:25:23;;;;;;;12.77;11.45;;;;;;;16.08;81.94;95202.78;5118013;28;20627;-67
2023/06/21 03:27:53;;;;;;;15.88;11.73;;;;;;;16.06;81.45;95201.59;5118764;28;20615;-68
2023/06/21 03:30:21;;;;;;;12.93;11.75;;;;;;;16.08;81.71;95193.66;5118779;28;20188;-68
2023/06/21 03:32:51;;;;;;;12.50;11.32;;;;;;;16.08;81.31;95193.66;5117996;28;20202;-68
2023/06/21 03:35:19;;;;;;;14.13;12.00;;;;;;;16.11;81.07;95198.44;5118716;28;20282;-68
2023/06/21 03:37:48;;;;;;;12.02;10.93;;;;;;;16.13;81.00;95196.09;5118578;28;20188;-68
2023/06/21 03:40:16;;;;;;;11.90;10.80;;;;;;;16.14;81.54;95197.69;5118049;28;20200;-68
2023/06/21 03:42:44;;;;;;;11.55;10.52;;;;;;;16.15;81.78;95204.84;5118381;28;20270;-68
2023/06/21 03:45:13;;;;;;;12.30;11.10;;;;;;;16.18;82.10;95204.06;5118769;28;20221;-68
2023/06/21 03:47:43;;;;;;;11.30;10.20;;;;;;;16.20;82.09;95201.72;5117860;28;20183;-68
2023/06/21 03:50:14;;;;;;;11.68;10.30;;;;;;;16.23;82.43;95200.94;5117955;28;20195;-68
2023/06/21 03:52:42;;;;;;;13.32;12.02;;;;;;;16.26;82.29;95202.13;5118338;28;20191;-68
2023/06/21 03:55:10;;;;;;;14.50;12.02;;;;;;;16.27;81.79;95200.97;5117235;28;20226;-68
2023/06/21 03:57:38;;;;;;;13.50;12.00;;;;;;;16.29;81.80;95207.72;5118717;28;20203;-67
2023/06/21 04:00:08;;;;;;;16.15;12.85;;;;;;;16.30;82.10;95206.56;5117426;28;20191;-67
2023/06/21 04:02:39;;;;;;;19.85;12.20;;;;;;;16.32;82.17;95209.75;5117300;28;20260;-67
2023/06/21 04:05:09;;;;;;;14.65;12.45;;;;;;;16.32;82.75;95214.50;5117341;28;20183;-67
2023/06/21 04:07:39;;;;;;;14.32;12.48;;;;;;;16.30;82.83;95220.47;5118269;28;20282;-67
2023/06/21 04:10:08;;;;;;;15.05;13.40;;;;;;;16.34;83.98;95221.31;5118250;28;20195;-67
2023/06/21 04:12:38;;;;;;;14.32;12.85;;;;;;;16.42;83.88;95226.94;5116944;28;20264;-67
2023/06/21 04:15:07;;;;;;;18.42;13.20;;;;;;;16.45;83.66;95223.34;5117767;28;20643;-67
2023/06/21 04:17:42;;;;;;;15.35;13.80;;;;;;;16.48;84.13;95225.34;5117639;28;20571;-67
2023/06/21 04:20:13;;;;;;;15.95;13.00;;;;;;;16.52;83.60;95220.59;5118137;28;20187;-67
2023/06/21 04:22:42;;;;;;;15.07;13.65;;;;;;;16.59;84.08;95223.44;5117978;28;20212;-68
2023/06/21 04:25:10;;;;;;;16.98;14.13;;;;;;;16.64;84.13;95227.88;5117898;28;20188;-68
2023/06/21 04:27:39;;;;;;;14.77;13.20;;;;;;;16.64;84.11;95233.44;5116688;28;20199;-68
2023/06/21 04:30:10;;;;;;;15.00;13.55;;;;;;;16.66;84.16;95231.84;5117421;28;20204;-68
2023/06/21 04:32:45;;;;;;;16.63;14.38;;;;;;;16.70;83.93;95235.44;5117813;28;20219;-68
2023/06/21 04:35:15;;;;;;;15.68;14.15;;;;;;;16.76;83.88;95230.34;5117577;28;20658;-68
2023/06/21 04:37:45;;;;;;;16.13;14.52;;;;;;;16.81;84.08;95228.00;5116782;28;20227;-67
2023/06/21 04:40:16;;;;;;;17.73;15.07;;;;;;;16.84;83.08;95226.41;5116598;28;20195;-68
2023/06/21 04:42:44;;;;;;;17.38;15.63;;;;;;;16.92;83.45;95236.44;5116575;28;20331;-69
2023/06/21 04:45:14;;;;;;;15.70;14.27;;;;;;;17.95;80.17;95236.00;5116603;28;20191;-68
2023/06/21 04:47:46;;;;;;;16.02;14.30;;;;;;;17.67;79.08;95236.69;5117421;28;20191;-68
2023/06/21 04:50:15;;;;;;;15.18;13.68;;;;;;;17.44;79.73;95239.03;5116873;28;20192;-68
2023/06/21 04:52:48;;;;;;;14.82;13.38;;;;;;;17.33;80.11;95233.41;5116392;28;20204;-67
2023/06/21 04:55:20;;;;;;;14.63;13.23;;;;;;;17.26;80.82;95236.19;5116229;28;20223;-68
2023/06/21 04:57:51;;;;;;;14.88;13.38;;;;;;;17.25;81.41;95226.22;5116404;28;20211;-68
2023/06/21 05:00:19;;;;;;;14.68;13.38;;;;;;;17.28;81.20;95234.59;5117296;28;20184;-68
2023/06/21 05:02:51;;;;;;;14.65;13.25;;;;;;;17.29;80.86;95233.41;5117194;28;20192;-68
2023/06/21 05:05:20;;;;;;;13.77;12.57;;;;;;;17.32;80.48;95240.19;5116859;28;20187;-68
2023/06/21 05:07:46;;;;;;;14.57;13.23;;;;;;;17.32;81.69;95232.63;5116115;28;20199;-67
2023/06/21 05:10:15;;;;;;;13.98;12.70;;;;;;;17.35;81.64;95235.81;5116286;28;20544;-68
2023/06/21 05:12:43;;;;;;;14.60;13.25;;;;;;;17.34;82.21;95235.00;5115681;28;20188;-68
2023/06/21 05:15:11;;;;;;;13.90;12.68;;;;;;;17.33;81.79;95227.84;5116892;28;20200;-68
2023/06/21 05:17:39;;;;;;;14.50;13.30;;;;;;;17.36;82.17;95227.06;5115622;28;20195;-68
2023/06/21 05:20:11;;;;;;;13.50;12.30;;;;;;;17.40;81.47;95216.72;5115622;28;20252;-68
2023/06/21 05:22:41;;;;;;;14.48;12.77;;;;;;;17.45;80.99;95224.69;5116323;28;20200;-68
2023/06/21 05:25:10;;;;;;;13.93;12.57;;;;;;;17.52;81.52;95227.50;5115239;28;20204;-68
2023/06/21 05:27:38;;;;;;;13.93;12.63;;;;;;;17.59;80.84;95231.50;5116624;28;20191;-68
2023/06/21 05:30:06;;;;;;;14.07;12.63;;;;;;;17.60;80.30;95231.09;5116362;28;20204;-68
2023/06/21 05:32:34;;;;;;;13.98;12.60;;;;;;;17.61;80.00;95234.69;5116579;28;20196;-68
2023/06/21 05:35:02;;;;;;;14.20;12.90;;;;;;;17.65;79.92;95232.72;5115704;28;20222;-68
2023/06/21 05:37:31;;;;;;;13.63;12.40;;;;;;;17.71;80.11;95233.91;5116391;28;20272;-68
2023/06/21 05:40:00;;;;;;;15.10;13.70;;;;;;;17.76;80.15;95233.59;5116484;28;20188;-68
2023/06/21 05:42:28;;;;;;;14.85;13.27;;;;;;;17.77;80.09;95233.19;5115496;28;20330;-68
2023/06/21 05:44:56;;;;;;;15.82;13.75;;;;;;;17.82;79.79;95228.41;5115675;28;20200;-68
2023/06/21 05:47:23;;;;;;;14.77;13.40;;;;;;;17.85;80.34;95231.19;5116309;28;20204;-68
2023/06/21 05:49:52;;;;;;;13.32;12.13;;;;;;;17.89;80.24;95222.81;5115586;28;20214;-68
2023/06/21 05:52:20;;;;;;;14.02;12.65;;;;;;;17.94;79.63;95225.25;5115052;28;20200;-68
2023/06/21 05:54:52;;;;;;;13.23;11.93;;;;;;;17.96;79.91;95217.25;5115452;28;20255;-68
2023/06/21 05:57:19;;;;;;;13.00;11.70;;;;;;;18.00;80.41;95218.06;5115379;28;20282;-68
2023/06/21 05:59:47;;;;;;;13.43;12.02;;;;;;;18.02;80.02;95219.25;5116092;28;20196;-68
2023/06/21 06:02:15;;;;;;;13.30;12.10;;;;;;;18.08;79.46;95221.66;5116168;28;20187;-69
2023/06/21 06:04:43;;;;;;;13.23;12.02;;;;;;;18.11;79.39;95215.28;5116053;28;20188;-68
2023/06/21 06:07:12;;;;;;;13.13;12.00;;;;;;;18.15;79.11;95219.66;5114939;28;20207;-68
2023/06/21 06:09:40;;;;;;;13.98;12.57;;;;;;;18.17;78.42;95210.91;5115619;28;20184;-68
2023/06/21 06:12:11;;;;;;;12.68;11.55;;;;;;;18.21;78.40;95206.91;5115987;28;20183;-68
2023/06/21 06:14:39;;;;;;;12.05;10.98;;;;;;;18.24;78.47;95214.47;5114722;28;20607;-68
2023/06/21 06:17:06;;;;;;;14.40;12.57;;;;;;;18.27;78.47;95219.28;5098154;28;20216;-68
2023/06/21 06:19:34;;;;;;;12.75;11.55;;;;;;;18.31;78.59;95215.69;5115546;28;20657;-68
2023/06/21 06:22:02;;;;;;;12.70;11.40;;;;;;;18.33;78.08;95202.09;5115055;28;20203;-68
2023/06/21 06:24:30;;;;;;;12.73;11.57;;;;;;;18.36;77.80;95213.28;5115072;28;20196;-68
2023/06/21 06:26:59;;;;;;;12.93;11.52;;;;;;;18.39;77.70;95209.69;5115988;28;20184;-68
2023/06/21 06:29:32;;;;;;;11.88;10.68;;;;;;;18.41;77.15;95210.09;5115465;28;20176;-68
2023/06/21 06:32:00;;;;;;;12.27;11.18;;;;;;;18.48;77.34;95203.69;5114688;28;20227;-68
2023/06/21 06:34:28;;;;;;;12.07;10.88;;;;;;;18.53;77.43;95206.88;5114827;28;20200;-68
2023/06/21 06:36:56;;;;;;;12.65;11.55;;;;;;;18.58;77.59;95204.88;5120729;28;20208;-68
2023/06/21 06:39:25;;;;;;;13.48;12.15;;;;;;;18.63;77.08;95210.88;5121537;28;20207;-68
2023/06/21 06:41:53;;;;;;;12.73;11.60;;;;;;;18.64;77.00;95208.88;5121164;28;20235;-68
2023/06/21 06:44:21;;;;;;;12.60;11.38;;;;;;;18.65;76.63;95202.06;5122741;28;20200;-68
2023/06/21 06:46:54;;;;;;;13.45;11.05;;;;;;;18.67;76.28;95203.28;5121242;28;20196;-68
2023/06/21 06:49:22;;;;;;;13.05;11.90;;;;;;;18.70;76.04;95204.44;5122383;27;20184;-68
2023/06/21 06:51:51;;;;;;;15.70;13.73;;;;;;;18.73;76.02;95203.69;5121419;28;20630;-68
2023/06/21 06:54:19;;;;;;;14.13;12.73;;;;;;;18.76;75.84;95198.09;5122256;28;20179;-68
2023/06/21 06:56:47;;;;;;;15.13;13.73;;;;;;;18.81;75.70;95205.28;5121565;28;20223;-68
2023/06/21 06:59:15;;;;;;;15.18;13.55;;;;;;;18.85;75.84;95203.28;5121284;28;20191;-68
2023/06/21 07:01:43;;;;;;;14.35;12.98;;;;;;;18.91;74.97;95196.03;5120992;28;20187;-68
2023/06/21 07:04:16;;;;;;;13.57;12.38;;;;;;;18.98;75.12;95203.63;5121240;28;20204;-68
2023/06/21 07:06:44;;;;;;;14.40;13.10;;;;;;;19.06;74.61;95196.00;5121267;28;20200;-68
2023/06/21 07:09:12;;;;;;;15.00;13.32;;;;;;;19.09;74.44;95198.00;5122416;28;20190;-68
2023/06/21 07:11:40;;;;;;;16.70;13.77;;;;;;;19.13;74.08;95199.56;5120968;28;20195;-68
2023/06/21 07:14:09;;;;;;;14.68;12.98;;;;;;;19.21;74.27;95189.19;5121339;28;20210;-68
2023/06/21 07:16:41;;;;;;;14.02;12.55;;;;;;;19.27;74.61;95195.91;5121485;28;20212;-68
2023/06/21 07:19:09;;;;;;;15.15;12.88;;;;;;;19.36;75.36;95195.50;5120911;28;20195;-68
2023/06/21 07:21:40;;;;;;;14.10;12.85;;;;;;;19.39;73.64;95189.88;5121104;28;20277;-68
2023/06/21 07:24:08;;;;;;;14.50;13.05;;;;;;;19.42;74.32;95183.47;5121145;28;20231;-69
2023/06/21 07:26:36;;;;;;;15.85;14.07;;;;;;;19.47;73.81;95185.06;5121656;28;20187;-68
2023/06/21 07:29:03;;;;;;;16.55;14.77;;;;;;;19.51;72.35;95182.25;5121726;28;20282;-68
2023/06/21 07:31:32;;;;;;;15.02;13.52;;;;;;;19.53;72.52;95179.81;5121831;28;20264;-68
2023/06/21 07:34:01;;;;;;;14.90;13.50;;;;;;;19.57;72.53;95183.38;5121660;28;20195;-68
2023/06/21 07:36:32;;;;;;;15.07;13.55;;;;;;;19.59;72.12;95186.59;5121317;28;20247;-68
2023/06/21 07:39:01;;;;;;;14.63;13.13;;;;;;;19.64;71.99;95183.38;5121728;28;20184;-68
2023/06/21 07:41:29;;;;;;;14.98;13.48;;;;;;;19.71;72.49;95175.72;5120579;28;20195;-69
2023/06/21 07:43:57;;;;;;;14.93;13.40;;;;;;;19.78;71.50;95174.88;5121964;28;20192;-69
2023/06/21 07:46:24;;;;;;;14.27;12.88;;;;;;;19.87;72.07;95177.25;5121442;27;20192;-68
2023/06/21 07:48:52;;;;;;;15.57;14.02;;;;;;;19.88;71.45;95171.22;5117167;28;20202;-68
2023/06/21 07:51:20;;;;;;;15.57;14.10;;;;;;;19.93;72.36;95173.59;5118532;28;20206;-68
2023/06/21 07:53:48;;;;;;;16.58;14.95;;;;;;;20.01;72.97;95174.34;5100513;28;20239;-68
2023/06/21 07:56:20;;;;;;;16.13;14.63;;;;;;;20.06;72.18;95173.91;5118253;28;20207;-68
2023/06/21 07:58:48;;;;;;;17.05;15.27;;;;;;;20.09;72.01;95170.28;5117739;28;20192;-68
2023/06/21 08:01:16;;;;;;;15.88;14.13;;;;;;;20.13;71.40;95173.03;5117498;28;20261;-68
2023/06/21 08:03:44;;;;;;;15.25;13.88;;;;;;;20.19;71.40;95171.41;5117172;28;20200;-68
2023/06/21 08:06:13;;;;;;;15.95;14.43;;;;;;;20.32;73.19;95172.47;5117294;28;20210;-68
2023/06/21 08:08:41;;;;;;;15.05;13.52;;;;;;;20.43;71.77;95173.16;5100559;28;20208;-68
2023/06/21 08:11:09;;;;;;;15.93;13.80;;;;;;;20.54;72.54;95164.69;5117351;28;20504;-68
2023/06/21 08:13:38;;;;;;;14.23;12.93;;;;;;;20.67;71.53;95165.78;5118467;28;20204;-68
2023/06/21 08:16:06;;;;;;;14.90;13.50;;;;;;;20.84;71.16;95160.38;5117263;28;20231;-68
2023/06/21 08:18:35;;;;;;;15.02;13.48;;;;;;;20.92;71.60;95159.91;5118119;28;20199;-68
2023/06/21 08:21:05;;;;;;;14.50;13.20;;;;;;;20.97;70.14;95160.66;5116759;28;20303;-68
2023/06/21 08:23:33;;;;;;;15.57;13.95;;;;;;;21.14;72.70;95159.66;5116802;28;20683;-68
2023/06/21 08:26:01;;;;;;;16.17;14.77;;;;;;;21.18;70.88;95165.22;5118105;28;20176;-68
2023/06/21 08:28:29;;;;;;;14.25;12.98;;;;;;;21.19;70.55;95164.78;5117398;28;20188;-68
2023/06/21 08:31:02;;;;;;;13.05;11.85;;;;;;;21.26;70.23;95164.69;5117519;28;20203;-68
2023/06/21 08:33:30;;;;;;;15.00;13.60;;;;;;;21.31;71.26;95169.03;5117747;28;20180;-68
2023/06/21 08:36:00;;;;;;;12.90;11.77;;;;;;;21.38;71.93;95161.34;5117505;28;20296;-68
2023/06/21 08:38:28;;;;;;;13.18;12.05;;;;;;;21.51;71.45;95161.59;5117662;28;20183;-68
2023/06/21 08:41:00;;;;;;;12.82;11.63;;;;;;;21.60;69.05;95164.66;5116560;28;20187;-68
2023/06/21 08:43:29;;;;;;;13.55;12.27;;;;;;;21.67;69.33;95163.78;5116048;28;20243;-68
2023/06/21 08:45:56;;;;;;;13.90;12.75;;;;;;;21.78;70.95;95164.41;5116469;28;20203;-68
2023/06/21 08:48:29;;;;;;;14.60;13.23;;;;;;;21.87;68.83;95161.09;5116570;28;20575;-68
2023/06/21 08:50:56;;;;;;;12.63;11.38;;;;;;;21.95;66.17;95156.16;5117428;28;20199;-68
2023/06/21 08:53:30;;;;;;;10.95;10.05;;;;;;;22.02;64.28;95145.59;5117444;28;20229;-68
2023/06/21 08:56:00;;;;;;;11.35;10.35;;;;;;;22.22;66.71;95147.72;5116224;28;20215;-68
2023/06/21 08:58:29;;;;;;;12.38;11.23;;;;;;;22.41;68.48;95149.03;5115942;28;20229;-68
2023/06/21 09:01:00;;;;;;;12.65;11.55;;;;;;;22.51;67.01;95148.84;5116579;28;20200;-68
2023/06/21 09:03:33;;;;;;;12.75;11.55;;;;;;;22.58;65.59;95148.69;5116899;28;20210;-68
2023/06/21 09:06:03;;;;;;;11.55;10.50;;;;;;;22.61;63.46;95146.25;5116749;28;20501;-68
2023/06/21 09:08:32;;;;;;;12.05;10.85;;;;;;;22.75;62.82;95151.63;5117532;28;20188;-68
2023/06/21 09:11:00;;;;;;;12.55;11.35;;;;;;;22.84;61.87;95146.22;5116115;28;20253;-68
2023/06/21 09:13:29;;;;;;;11.57;10.57;;;;;;;22.96;62.61;95144.81;5115977;28;20245;-68
2023/06/21 09:15:57;;;;;;;11.70;10.65;;;;;;;23.08;62.47;95141.34;5116031;28;20204;-68
2023/06/21 09:18:26;;;;;;;11.32;10.27;;;;;;;23.26;60.36;95144.59;5116605;28;20294;-68
2023/06/21 09:20:56;;;;;;;11.90;10.90;;;;;;;23.40;61.16;95142.72;5116739;28;20227;-68
2023/06/21 09:23:24;;;;;;;10.95;9.95;;;;;;;23.50;60.86;95142.50;5116549;28;20558;-68
2023/06/21 09:25:52;;;;;;;10.77;9.88;;;;;;;23.59;58.19;95139.06;5116251;28;20230;-68
2023/06/21 09:28:20;;;;;;;10.27;9.38;;;;;;;23.64;55.06;95146.19;5115931;28;20196;-68
2023/06/21 09:30:48;;;;;;;10.40;9.40;;;;;;;23.75;54.47;95146.81;5116016;28;20200;-68
2023/06/21 09:33:16;;;;;;;10.10;9.18;;;;;;;23.84;53.89;95146.19;5116776;28;20245;-68
2023/06/21 09:35:45;;;;;;;9.85;9.00;;;;;;;23.93;55.20;95143.56;5115584;28;20253;-68
2023/06/21 09:38:26;;;;;;;10.07;9.13;;;;;;;24.06;54.34;95146.50;5115422;28;20280;-68
2023/06/21 09:40:54;;;;;;;9.63;8.73;;;;;;;24.12;53.07;95148.34;5115451;28;20261;-68
2023/06/21 09:43:23;;;;;;;9.73;8.93;;;;;;;24.23;55.92;95131.97;5115708;28;20258;-68
2023/06/21 09:46:03;;;;;;;10.13;9.13;;;;;;;24.43;54.52;95143.16;5115191;28;20217;-68
2023/06/21 09:48:35;;;;;;;9.30;8.60;;;;;;;24.51;51.61;95135.34;5115605;28;20196;-69
2023/06/21 09:51:04;;;;;;;9.45;8.57;;;;;;;24.60;54.56;95141.13;5115480;28;20187;-68
2023/06/21 09:53:34;;;;;;;9.30;8.60;;;;;;;24.65;51.25;95134.94;5116157;28;20184;-68
2023/06/21 09:56:01;;;;;;;9.00;8.27;;;;;;;24.73;52.28;95141.22;5115936;28;20199;-68
2023/06/21 09:58:29;;;;;;;10.00;9.10;;;;;;;24.84;50.37;95138.09;5115400;28;20210;-68
2023/06/21 10:00:59;;;;;;;11.15;9.95;;;;;;;24.91;50.52;95132.25;5114975;28;20206;-68
2023/06/21 10:03:27;;;;;;;11.65;10.45;;;;;;;24.98;52.34;95134.88;5115031;28;20187;-68
2023/06/21 10:05:56;;;;;;;10.80;9.82;;;;;;;25.09;51.01;95132.56;5115212;28;20192;-68
2023/06/21 10:08:25;;;;;;;11.32;10.43;;;;;;;25.19;50.98;95133.50;5116186;28;20203;-68
2023/06/21 10:10:55;;;;;;;11.20;10.20;;;;;;;25.22;51.75;95135.44;5115660;28;20207;-68
2023/06/21 10:13:27;;;;;;;11.57;10.07;;;;;;;25.29;52.55;95140.09;5114900;28;20207;-68
2023/06/21 10:15:56;;;;;;;11.38;10.35;;;;;;;25.33;50.76;95141.56;5115203;28;20207;-68
2023/06/21 10:18:23;;;;;;;11.70;10.60;;;;;;;25.36;49.03;95140.69;5115138;28;20219;-68
2023/06/21 10:20:55;;;;;;;11.02;10.05;;;;;;;25.38;50.36;95143.84;5116149;28;20264;-68
2023/06/21 10:23:24;;;;;;;11.20;10.10;;;;;;;25.52;51.66;95130.53;5114552;28;20225;-68
2023/06/21 10:25:52;;;;;;;11.73;10.73;;;;;;;25.72;51.79;95136.00;5115919;28;20199;-68
2023/06/21 10:28:24;;;;;;;11.95;10.85;;;;;;;25.76;51.00;95129.00;5114759;28;20203;-68
2023/06/21 10:30:53;;;;;;;12.77;11.57;;;;;;;25.86;52.94;95129.94;5115704;28;20191;-68
2023/06/21 10:33:22;;;;;;;10.95;10.05;;;;;;;25.89;50.56;95137.50;5114966;28;20192;-69
2023/06/21 10:35:49;;;;;;;10.45;9.55;;;;;;;25.93;50.54;95141.81;5114676;28;20199;-69
2023/06/21 10:38:26;;;;;;;10.50;9.55;;;;;;;25.97;49.35;95133.22;5115814;28;20301;-69
2023/06/21 10:40:54;;;;;;;11.55;10.55;;;;;;;26.03;49.74;95144.72;5115635;28;20622;-68
2023/06/21 10:43:23;;;;;;;10.95;9.85;;;;;;;26.06;49.45;95138.97;5114023;28;20246;-69
2023/06/21 10:45:52;;;;;;;11.13;10.20;;;;;;;26.16;48.54;95134.22;5115231;28;20199;-68
2023/06/21 10:48:21;;;;;;;10.48;9.65;;;;;;;26.31;50.02;95143.03;5115733;28;20184;-68
2023/06/21 10:50:52;;;;;;;11.70;10.70;;;;;;;26.37;48.90;95142.00;5115574;28;20194;-68
2023/06/21 10:53:21;;;;;;;10.98;9.95;;;;;;;26.39;49.87;95136.66;5114534;28;20188;-68
2023/06/21 10:55:52;;;;;;;11.73;10.65;;;;;;;26.43;50.33;95145.03;5115218;28;20180;-68
2023/06/21 10:58:24;;;;;;;11.43;10.32;;;;;;;26.43;49.68;95133.72;5114622;28;20219;-68
2023/06/21 11:00:52;;;;;;;11.30;10.35;;;;;;;26.44;50.67;95134.53;5115175;28;20191;-68
2023/06/21 11:03:25;;;;;;;9.60;8.80;;;;;;;26.48;47.72;95132.41;5114451;28;20192;-68
2023/06/21 11:05:55;;;;;;;10.07;9.27;;;;;;;26.42;46.56;95132.16;5115651;28;20261;-68
2023/06/21 11:08:31;;;;;;;10.65;9.65;;;;;;;26.44;48.81;95131.72;5115032;28;20268;-68
2023/06/21 11:11:02;;;;;;;10.15;9.45;;;;;;;26.44;47.11;95134.53;5114453;28;20183;-68
2023/06/21 11:13:39;;;;;;;10.45;9.57;;;;;;;26.51;48.64;95128.66;5114143;28;20264;-69
2023/06/21 11:16:15;;;;;;;9.93;9.02;;;;;;;26.60;46.24;95123.88;5115111;28;20317;-69
2023/06/21 11:18:45;;;;;;;10.88;9.85;;;;;;;26.62;45.40;95117.78;5115255;28;20203;-69
2023/06/21 11:21:13;;;;;;;11.32;10.40;;;;;;;26.70;47.55;95126.81;5114236;28;20192;-69
2023/06/21 11:23:51;;;;;;;10.27;9.35;;;;;;;26.66;46.68;95132.59;5118088;28;20192;-69
2023/06/21 11:26:19;;;;;;;10.82;9.77;;;;;;;26.71;49.49;95125.56;5119105;28;20195;-69
2023/06/21 11:28:49;;;;;;;10.25;9.35;;;;;;;26.74;46.10;95122.59;5118098;28;20226;-69
2023/06/21 11:31:18;;;;;;;11.20;10.10;;;;;;;26.80;46.57;95125.66;5118983;28;20192;-69